createdAt,value
2018-03-11T00:00:50.217Z,81.52
2018-03-11T00:03:17.861Z,81.48
2018-03-11T00:05:45.479Z,81.40
2018-03-11T00:08:13.212Z,81.37
2018-03-11T00:10:40.833Z,81.30
2018-03-11T00:13:08.457Z,81.30
2018-03-11T00:15:36.206Z,81.33
2018-03-11T00:18:03.865Z,81.31
2018-03-11T00:20:31.504Z,81.26
2018-03-11T00:22:59.183Z,81.31
2018-03-11T00:25:26.847Z,81.37
2018-03-11T00:27:55.129Z,81.40
2018-03-11T00:30:22.773Z,81.33
2018-03-11T00:32:50.449Z,81.30
2018-03-11T00:35:18.116Z,81.19
2018-03-11T00:37:45.786Z,81.09
2018-03-11T00:40:13.424Z,80.96
2018-03-11T00:42:41.032Z,80.86
2018-03-11T00:45:08.664Z,80.71
2018-03-11T00:47:36.324Z,80.50
2018-03-11T00:50:03.949Z,80.42
2018-03-11T00:52:31.593Z,80.40
2018-03-11T00:54:59.315Z,80.34
2018-03-11T00:57:26.980Z,80.30
2018-03-11T00:59:54.597Z,80.43
2018-03-11T01:02:22.242Z,80.50
2018-03-11T01:04:49.968Z,80.54
2018-03-11T01:07:17.604Z,80.46
2018-03-11T01:09:45.292Z,80.37
2018-03-11T01:12:12.935Z,80.42
2018-03-11T01:14:40.621Z,80.51
2018-03-11T01:17:08.237Z,80.52
2018-03-11T01:19:35.952Z,80.61
2018-03-11T01:22:03.614Z,80.66
2018-03-11T01:24:31.274Z,80.75
2018-03-11T01:26:58.890Z,80.98
2018-03-11T01:29:26.528Z,81.08
2018-03-11T01:31:54.157Z,81.14
2018-03-11T01:34:21.821Z,81.12
2018-03-11T01:36:49.436Z,81.11
2018-03-11T01:39:17.148Z,81.06
2018-03-11T01:41:44.809Z,81.07
2018-03-11T01:44:12.449Z,81.00
2018-03-11T01:46:40.128Z,80.95
2018-03-11T01:49:07.763Z,81.04
2018-03-11T01:51:35.376Z,81.06
2018-03-11T01:54:03.129Z,80.92
2018-03-11T01:56:30.736Z,80.83
2018-03-11T01:58:58.444Z,80.88
2018-03-11T02:01:26.052Z,80.90
2018-03-11T02:03:53.772Z,80.80
2018-03-11T02:06:21.389Z,80.73
2018-03-11T02:08:49.008Z,80.72
2018-03-11T02:11:16.640Z,80.77
2018-03-11T02:13:44.247Z,80.68
2018-03-11T02:16:11.876Z,80.56
2018-03-11T02:18:39.548Z,80.46
2018-03-11T02:21:09.868Z,80.44
2018-03-11T02:23:37.477Z,80.30
2018-03-11T02:26:05.112Z,80.24
2018-03-11T02:28:32.751Z,80.07
2018-03-11T02:31:00.384Z,80.09
2018-03-11T02:33:28.004Z,80.08
2018-03-11T02:35:55.642Z,79.97
2018-03-11T02:38:23.254Z,79.99
2018-03-11T02:40:50.894Z,80.04
2018-03-11T02:43:18.529Z,80.24
2018-03-11T02:45:46.165Z,80.84
2018-03-11T02:48:13.809Z,80.29
2018-03-11T02:50:41.521Z,80.65
2018-03-11T02:53:09.147Z,80.32
2018-03-11T02:55:36.843Z,80.71
2018-03-11T02:58:04.509Z,81.16
2018-03-11T03:00:32.129Z,81.36
2018-03-11T03:02:59.764Z,81.46
2018-03-11T03:05:27.381Z,81.17
2018-03-11T03:07:55.068Z,81.17
2018-03-11T03:10:22.685Z,81.13
2018-03-11T03:12:50.325Z,81.31
2018-03-11T03:15:17.940Z,81.52
2018-03-11T03:17:45.606Z,82.23
2018-03-11T03:20:13.273Z,82.09
2018-03-11T03:22:40.924Z,82.09
2018-03-11T03:25:08.545Z,82.25
2018-03-11T03:27:36.152Z,82.31
2018-03-11T03:30:03.786Z,82.19
2018-03-11T03:32:31.408Z,82.16
2018-03-11T03:34:59.045Z,81.86
2018-03-11T03:37:26.700Z,81.22
2018-03-11T03:39:54.364Z,81.42
2018-03-11T03:42:21.985Z,81.60
2018-03-11T03:44:49.694Z,81.78
2018-03-11T03:47:17.348Z,81.80
2018-03-11T03:49:45.013Z,81.59
2018-03-11T03:52:12.634Z,81.64
2018-03-11T03:54:40.338Z,81.75
2018-03-11T03:57:08.000Z,81.76
2018-03-11T03:59:35.773Z,81.74
2018-03-11T04:02:03.429Z,81.98
2018-03-11T04:04:31.052Z,82.06
2018-03-11T04:06:58.756Z,82.36
2018-03-11T04:09:26.376Z,82.45
2018-03-11T04:11:54.017Z,82.10
2018-03-11T04:14:21.637Z,81.98
2018-03-11T04:16:49.304Z,81.91
2018-03-11T04:19:16.926Z,82.31
2018-03-11T04:21:44.628Z,82.54
2018-03-11T04:24:12.254Z,82.49
2018-03-11T04:26:39.952Z,82.33
2018-03-11T04:29:07.565Z,82.54
2018-03-11T04:31:35.220Z,82.59
2018-03-11T04:34:02.836Z,82.45
2018-03-11T04:36:30.881Z,82.30
2018-03-11T04:38:58.541Z,82.06
2018-03-11T04:41:26.163Z,81.78
2018-03-11T04:43:53.905Z,81.55
2018-03-11T04:46:21.565Z,81.58
2018-03-11T04:48:49.199Z,81.74
2018-03-11T04:51:16.808Z,82.03
2018-03-11T04:53:44.553Z,82.67
2018-03-11T04:56:12.160Z,82.60
2018-03-11T04:58:39.794Z,82.49
2018-03-11T05:01:07.407Z,81.41
2018-03-11T05:03:35.045Z,81.57
2018-03-11T05:06:02.648Z,81.30
2018-03-11T05:08:30.529Z,81.58
2018-03-11T05:10:58.144Z,81.87
2018-03-11T05:13:25.744Z,81.74
2018-03-11T05:15:53.411Z,81.70
2018-03-11T05:18:21.028Z,81.71
2018-03-11T05:20:48.673Z,82.16
2018-03-11T05:23:16.280Z,82.72
2018-03-11T05:25:43.964Z,83.22
2018-03-11T05:28:11.580Z,83.64
2018-03-11T05:30:39.220Z,83.98
2018-03-11T05:33:06.839Z,84.33
2018-03-11T05:35:34.492Z,84.40
2018-03-11T05:38:02.118Z,83.48
2018-03-11T05:40:30.463Z,83.54
2018-03-11T05:42:58.109Z,83.25
2018-03-11T05:45:25.780Z,83.40
2018-03-11T05:47:53.449Z,83.57
2018-03-11T05:50:21.107Z,83.41
2018-03-11T05:52:48.740Z,83.17
2018-03-11T05:55:16.369Z,83.00
2018-03-11T05:57:44.012Z,83.46
2018-03-11T06:00:11.653Z,83.27
2018-03-11T06:02:39.422Z,83.21
2018-03-11T06:05:07.045Z,83.36
2018-03-11T06:07:34.653Z,83.45
2018-03-11T06:10:02.308Z,83.36
2018-03-11T06:12:29.964Z,83.47
2018-03-11T06:14:57.638Z,83.53
2018-03-11T06:17:25.293Z,83.27
2018-03-11T06:19:52.933Z,82.93
2018-03-11T06:22:20.554Z,82.61
2018-03-11T06:24:48.197Z,82.65
2018-03-11T06:27:15.804Z,82.72
2018-03-11T06:29:43.504Z,82.73
2018-03-11T06:32:11.115Z,82.91
2018-03-11T06:34:38.756Z,83.46
2018-03-11T06:37:06.369Z,83.68
2018-03-11T06:39:34.054Z,83.65
2018-03-11T06:42:01.692Z,83.26
2018-03-11T06:44:29.310Z,83.24
2018-03-11T06:46:57.043Z,83.00
2018-03-11T06:49:24.656Z,82.99
2018-03-11T06:51:52.360Z,82.88
2018-03-11T06:54:20.025Z,82.67
2018-03-11T06:56:47.657Z,82.82
2018-03-11T06:59:15.273Z,82.63
2018-03-11T07:01:43.017Z,82.54
2018-03-11T07:04:10.682Z,82.42
2018-03-11T07:06:38.328Z,82.54
2018-03-11T07:09:06.000Z,82.57
2018-03-11T07:11:33.662Z,82.79
2018-03-11T07:14:01.298Z,82.84
2018-03-11T07:16:28.920Z,82.94
2018-03-11T07:18:56.664Z,82.96
2018-03-11T07:21:24.318Z,83.29
2018-03-11T07:23:51.948Z,83.52
2018-03-11T07:26:19.565Z,83.74
2018-03-11T07:28:47.197Z,83.81
2018-03-11T07:31:14.869Z,83.86
2018-03-11T07:33:42.524Z,83.99
2018-03-11T07:36:10.129Z,83.98
2018-03-11T07:38:37.776Z,83.94
2018-03-11T07:41:05.380Z,83.93
2018-03-11T07:43:32.988Z,84.03
2018-03-11T07:46:00.636Z,84.11
2018-03-11T07:48:28.257Z,84.00
2018-03-11T07:50:55.888Z,84.14
2018-03-11T07:53:23.521Z,84.43
2018-03-11T07:55:51.157Z,84.45
2018-03-11T07:58:18.847Z,84.68
2018-03-11T08:00:46.480Z,84.56
2018-03-11T08:03:14.176Z,84.38
2018-03-11T08:05:41.829Z,84.24
2018-03-11T08:08:09.445Z,83.81
2018-03-11T08:10:37.165Z,83.51
2018-03-11T08:13:04.805Z,83.18
2018-03-11T08:15:32.488Z,82.79
2018-03-11T08:18:00.149Z,82.72
2018-03-11T08:20:27.817Z,82.66
2018-03-11T08:22:55.448Z,82.43
2018-03-11T08:25:23.056Z,82.05
2018-03-11T08:27:50.763Z,81.79
2018-03-11T08:30:18.372Z,81.46
2018-03-11T08:32:46.004Z,81.38
2018-03-11T08:35:13.617Z,81.05
2018-03-11T08:37:41.345Z,80.50
2018-03-11T08:40:08.960Z,80.10
2018-03-11T08:42:36.572Z,79.68
2018-03-11T08:45:04.209Z,79.39
2018-03-11T08:47:31.900Z,79.05
2018-03-11T08:49:59.658Z,78.70
2018-03-11T08:52:27.280Z,78.62
2018-03-11T08:54:54.920Z,78.46
2018-03-11T08:57:22.552Z,78.38
2018-03-11T08:59:50.217Z,78.12
2018-03-11T09:02:17.876Z,77.90
2018-03-11T09:04:45.521Z,77.65
2018-03-11T09:07:13.196Z,77.56
2018-03-11T09:09:40.868Z,77.38
2018-03-11T09:12:08.505Z,77.06
2018-03-11T09:14:36.187Z,76.84
2018-03-11T09:17:03.835Z,76.73
2018-03-11T09:19:31.460Z,76.50
2018-03-11T09:21:59.101Z,76.28
2018-03-11T09:24:26.741Z,76.00
2018-03-11T09:26:54.375Z,75.83
2018-03-11T09:29:21.992Z,75.61
2018-03-11T09:31:49.727Z,75.29
2018-03-11T09:34:17.401Z,75.14
2018-03-11T09:36:45.062Z,74.98
2018-03-11T09:39:12.812Z,74.87
2018-03-11T09:41:40.476Z,74.92
2018-03-11T09:44:08.144Z,74.51
2018-03-11T09:46:35.788Z,74.42
2018-03-11T09:49:03.465Z,74.22
2018-03-11T09:51:31.133Z,74.31
2018-03-11T09:53:58.763Z,74.24
2018-03-11T09:56:26.456Z,74.17
2018-03-11T09:58:54.093Z,74.14
2018-03-11T10:01:21.777Z,74.06
2018-03-11T10:03:49.418Z,73.92
2018-03-11T10:06:17.108Z,73.88
2018-03-11T10:08:44.751Z,73.81
2018-03-11T10:11:12.530Z,73.67
2018-03-11T10:13:40.173Z,73.71
2018-03-11T10:16:07.788Z,73.48
2018-03-11T10:18:35.425Z,73.47
2018-03-11T10:21:03.088Z,73.16
2018-03-11T10:23:30.805Z,73.10
2018-03-11T10:25:58.416Z,72.75
2018-03-11T10:28:26.081Z,72.60
2018-03-11T10:30:53.718Z,72.19
2018-03-11T10:33:21.335Z,72.09
2018-03-11T10:35:48.968Z,71.93
2018-03-11T10:38:16.628Z,71.59
2018-03-11T10:40:44.288Z,71.08
2018-03-11T10:43:11.952Z,70.87
2018-03-11T10:45:39.584Z,70.71
2018-03-11T10:48:07.200Z,70.08
2018-03-11T10:50:34.937Z,70.22
2018-03-11T10:53:02.596Z,70.26
2018-03-11T10:55:30.243Z,70.31
2018-03-11T10:57:57.856Z,70.38
2018-03-11T11:00:27.328Z,69.87
2018-03-11T11:03:00.476Z,69.37
2018-03-11T11:05:28.184Z,68.94
2018-03-11T11:07:55.805Z,69.21
2018-03-11T11:10:23.440Z,68.96
2018-03-11T11:12:51.048Z,68.79
2018-03-11T11:15:18.698Z,68.75
2018-03-11T11:17:46.397Z,68.49
2018-03-11T11:20:14.056Z,68.28
2018-03-11T11:22:41.668Z,68.28
2018-03-11T11:25:09.328Z,68.07
2018-03-11T11:27:37.040Z,67.87
2018-03-11T11:30:04.655Z,67.43
2018-03-11T11:32:32.375Z,66.95
2018-03-11T11:35:00.192Z,66.34
2018-03-11T11:37:27.863Z,65.90
2018-03-11T11:39:55.468Z,66.11
2018-03-11T11:42:23.123Z,65.83
2018-03-11T11:44:50.788Z,65.13
2018-03-11T11:47:18.452Z,64.92
2018-03-11T11:49:46.058Z,64.89
2018-03-11T11:52:14.268Z,64.64
2018-03-11T11:54:41.880Z,64.29
2018-03-11T11:57:10.253Z,64.58
2018-03-11T11:59:37.864Z,64.38
2018-03-11T12:02:05.657Z,64.24
2018-03-11T12:04:33.264Z,63.72
2018-03-11T12:07:00.935Z,63.40
2018-03-11T12:09:28.540Z,63.11
2018-03-11T12:11:56.147Z,63.48
2018-03-11T12:14:23.780Z,63.37
2018-03-11T12:16:51.420Z,63.10
2018-03-11T12:19:19.061Z,63.07
2018-03-11T12:21:46.750Z,62.79
2018-03-11T12:24:14.511Z,62.66
2018-03-11T12:26:42.185Z,62.41
2018-03-11T12:29:09.825Z,61.99
2018-03-11T12:31:37.445Z,62.21
2018-03-11T12:34:05.173Z,62.04
2018-03-11T12:36:32.826Z,61.43
2018-03-11T12:39:00.480Z,60.45
2018-03-11T12:41:28.094Z,60.06
2018-03-11T12:43:55.712Z,59.99
2018-03-11T12:46:23.379Z,59.95
2018-03-11T12:48:50.988Z,60.01
2018-03-11T12:51:18.624Z,60.05
2018-03-11T12:53:46.236Z,59.98
2018-03-11T12:56:13.876Z,59.91
2018-03-11T12:58:41.616Z,59.81
2018-03-11T13:01:09.249Z,59.81
2018-03-11T13:03:37.068Z,59.43
2018-03-11T13:06:04.784Z,59.52
2018-03-11T13:08:32.419Z,59.29
2018-03-11T13:11:00.122Z,59.50
2018-03-11T13:13:27.740Z,59.58
2018-03-11T13:15:55.437Z,59.89
2018-03-11T13:18:24.740Z,60.13
2018-03-11T13:21:04.285Z,60.14
2018-03-11T13:23:31.938Z,60.08
2018-03-11T13:25:59.548Z,59.95
2018-03-11T13:28:39.057Z,59.99
2018-03-11T13:31:06.708Z,59.76
2018-03-11T13:33:46.140Z,59.82
2018-03-11T13:36:13.808Z,59.81
2018-03-11T13:38:53.387Z,60.04
2018-03-11T13:41:21.006Z,60.11
2018-03-11T13:43:48.640Z,60.01
2018-03-11T13:46:28.112Z,60.17
2018-03-11T13:48:55.757Z,60.46
2018-03-11T13:51:35.209Z,60.17
2018-03-11T13:54:02.844Z,60.31
2018-03-11T13:56:30.448Z,60.35
2018-03-11T13:58:58.081Z,60.55
2018-03-11T14:01:25.693Z,60.33
2018-03-11T14:03:53.332Z,60.12
2018-03-11T14:06:20.988Z,59.91
2018-03-11T14:08:48.633Z,59.87
2018-03-11T14:11:16.260Z,59.71
2018-03-11T14:13:43.891Z,59.60
2018-03-11T14:16:11.503Z,59.48
2018-03-11T14:18:39.117Z,59.53
2018-03-11T14:21:06.860Z,58.57
2018-03-11T14:23:34.469Z,57.91
2018-03-11T14:26:02.104Z,57.29
2018-03-11T14:28:29.712Z,57.34
2018-03-11T14:30:57.350Z,57.41
2018-03-11T14:33:24.963Z,57.02
2018-03-11T14:35:52.603Z,56.88
2018-03-11T14:38:20.212Z,56.72
2018-03-11T14:40:47.842Z,56.07
2018-03-11T14:43:15.472Z,56.14
2018-03-11T14:45:43.185Z,56.33
2018-03-11T14:48:10.845Z,56.50
2018-03-11T14:50:38.497Z,56.85
2018-03-11T14:53:06.119Z,56.97
2018-03-11T14:55:33.728Z,56.93
2018-03-11T14:58:01.361Z,56.70
2018-03-11T15:00:29.052Z,56.64
2018-03-11T15:02:56.686Z,56.72
2018-03-11T15:05:24.301Z,56.80
2018-03-11T15:07:51.959Z,56.67
2018-03-11T15:10:19.572Z,56.73
2018-03-11T15:12:47.196Z,56.44
2018-03-11T15:15:14.936Z,56.59
2018-03-11T15:17:42.553Z,56.66
2018-03-11T15:20:10.185Z,56.91
2018-03-11T15:22:37.832Z,57.00
2018-03-11T15:25:05.457Z,57.18
2018-03-11T15:27:33.144Z,57.08
2018-03-11T15:30:00.812Z,57.24
2018-03-11T15:32:28.423Z,57.19
2018-03-11T15:34:56.129Z,57.27
2018-03-11T15:37:23.790Z,57.54
2018-03-11T15:39:51.425Z,57.73
2018-03-11T15:42:19.040Z,57.83
2018-03-11T15:44:46.672Z,58.04
2018-03-11T15:47:14.285Z,58.17
2018-03-11T15:49:41.895Z,58.35
2018-03-11T15:52:09.533Z,58.55
2018-03-11T15:54:37.225Z,58.78
2018-03-11T15:57:04.884Z,59.00
2018-03-11T15:59:32.498Z,59.02
2018-03-11T16:02:00.208Z,59.13
2018-03-11T16:04:27.876Z,59.20
2018-03-11T16:06:55.521Z,59.34
2018-03-11T16:09:23.204Z,60.34
2018-03-11T16:11:50.845Z,60.95
2018-03-11T16:14:18.529Z,61.45
2018-03-11T16:16:46.164Z,61.93
2018-03-11T16:19:13.848Z,62.36
2018-03-11T16:21:41.461Z,62.88
2018-03-11T16:24:09.092Z,63.27
2018-03-11T16:26:36.709Z,63.61
2018-03-11T16:29:04.401Z,64.00
2018-03-11T16:31:32.063Z,64.28
2018-03-11T16:33:59.697Z,64.57
2018-03-11T16:36:27.400Z,64.89
2018-03-11T16:38:55.033Z,65.11
2018-03-11T16:41:22.716Z,65.33
2018-03-11T16:43:50.383Z,65.55
2018-03-11T16:46:17.997Z,65.79
2018-03-11T16:48:45.604Z,66.07
2018-03-11T16:51:13.244Z,66.32
2018-03-11T16:53:40.876Z,66.43
2018-03-11T16:56:08.515Z,66.57
2018-03-11T16:58:36.154Z,66.78
2018-03-11T17:01:03.813Z,66.97
2018-03-11T17:03:31.434Z,67.13
2018-03-11T17:05:59.142Z,67.39
2018-03-11T17:08:26.753Z,67.46
2018-03-11T17:10:54.384Z,67.59
2018-03-11T17:13:22.027Z,67.82
2018-03-11T17:15:49.660Z,68.13
2018-03-11T17:18:17.352Z,68.25
2018-03-11T17:20:44.984Z,68.31
2018-03-11T17:23:12.596Z,68.38
2018-03-11T17:25:40.266Z,68.45
2018-03-11T17:28:07.892Z,68.57
2018-03-11T17:30:35.547Z,68.66
2018-03-11T17:33:03.214Z,68.80
2018-03-11T17:35:30.889Z,68.98
2018-03-11T17:37:58.641Z,69.07
2018-03-11T17:40:26.253Z,69.18
2018-03-11T17:42:53.901Z,69.19
2018-03-11T17:45:21.536Z,69.21
2018-03-11T17:47:49.164Z,69.23
2018-03-11T17:50:16.780Z,69.27
2018-03-11T17:52:44.529Z,69.33
2018-03-11T17:55:12.141Z,69.50
2018-03-11T17:57:39.845Z,69.65
2018-03-11T18:00:07.456Z,69.75
2018-03-11T18:02:35.177Z,69.87
2018-03-11T18:05:02.841Z,70.13
2018-03-11T18:07:30.500Z,70.46
2018-03-11T18:09:58.118Z,70.75
2018-03-11T18:12:25.824Z,71.06
2018-03-11T18:14:53.436Z,71.35
2018-03-11T18:17:21.153Z,71.51
2018-03-11T18:19:48.911Z,71.60
2018-03-11T18:22:16.574Z,71.82
2018-03-11T18:24:44.196Z,71.99
2018-03-11T18:27:11.869Z,72.10
2018-03-11T18:29:39.569Z,72.15
2018-03-11T18:32:07.266Z,72.42
2018-03-11T18:34:34.895Z,72.63
2018-03-11T18:37:02.552Z,72.92
2018-03-11T18:39:30.188Z,73.02
2018-03-11T18:41:57.796Z,73.11
2018-03-11T18:44:25.429Z,73.32
2018-03-11T18:46:53.104Z,73.40
2018-03-11T18:49:20.769Z,73.52
2018-03-11T18:51:48.432Z,73.56
2018-03-11T18:54:16.073Z,73.75
2018-03-11T18:56:43.687Z,73.80
2018-03-11T18:59:11.897Z,73.76
2018-03-11T19:01:39.521Z,73.66
2018-03-11T19:04:07.257Z,73.65
2018-03-11T19:06:34.872Z,73.65
2018-03-11T19:09:02.507Z,73.89
2018-03-11T19:11:30.151Z,74.05
2018-03-11T19:13:57.804Z,74.37
2018-03-11T19:16:25.464Z,74.56
2018-03-11T19:18:53.125Z,74.72
2018-03-11T19:21:20.796Z,74.80
2018-03-11T19:23:48.453Z,74.78
2018-03-11T19:26:16.081Z,74.82
2018-03-11T19:28:43.776Z,74.96
2018-03-11T19:31:11.412Z,75.01
2018-03-11T19:33:39.105Z,75.03
2018-03-11T19:36:06.768Z,75.08
2018-03-11T19:38:34.434Z,75.00
2018-03-11T19:41:02.084Z,75.04
2018-03-11T19:43:29.756Z,75.13
2018-03-11T19:45:57.412Z,75.14
2018-03-11T19:48:25.045Z,75.03
2018-03-11T19:50:52.745Z,75.11
2018-03-11T19:53:20.502Z,75.05
2018-03-11T19:55:48.168Z,75.18
2018-03-11T19:58:15.837Z,75.24
2018-03-11T20:00:43.477Z,75.45
2018-03-11T20:03:11.109Z,75.63
2018-03-11T20:05:38.722Z,75.86
2018-03-11T20:08:06.384Z,76.01
2018-03-11T20:10:33.988Z,76.05
2018-03-11T20:13:01.625Z,76.23
2018-03-11T20:15:29.257Z,76.41
2018-03-11T20:17:56.924Z,76.47
2018-03-11T20:20:24.592Z,76.79
2018-03-11T20:22:52.205Z,76.91
2018-03-11T20:25:19.829Z,77.13
2018-03-11T20:27:47.432Z,77.35
2018-03-11T20:30:15.065Z,77.64
2018-03-11T20:32:42.674Z,77.88
2018-03-11T20:35:10.303Z,77.93
2018-03-11T20:37:38.023Z,77.93
2018-03-11T20:40:05.673Z,77.96
2018-03-11T20:42:33.282Z,77.90
2018-03-11T20:45:01.009Z,77.96
2018-03-11T20:47:28.642Z,77.70
2018-03-11T20:49:56.346Z,77.57
2018-03-11T20:52:23.974Z,77.51
2018-03-11T20:54:51.645Z,77.49
2018-03-11T20:57:19.249Z,77.38
2018-03-11T20:59:46.892Z,77.36
2018-03-11T21:02:14.560Z,77.41
2018-03-11T21:04:42.215Z,77.52
2018-03-11T21:07:09.919Z,77.50
2018-03-11T21:09:37.509Z,77.49
2018-03-11T21:12:05.141Z,77.40
2018-03-11T21:14:32.864Z,77.37
2018-03-11T21:17:00.512Z,77.32
2018-03-11T21:19:28.193Z,77.32
2018-03-11T21:21:55.809Z,77.43
2018-03-11T21:24:23.448Z,77.37
2018-03-11T21:26:51.077Z,77.37
2018-03-11T21:29:18.704Z,77.32
2018-03-11T21:31:46.318Z,77.31
2018-03-11T21:34:14.589Z,77.29
2018-03-11T21:36:42.201Z,77.19
2018-03-11T21:39:09.833Z,77.00
2018-03-11T21:41:37.464Z,76.95
2018-03-11T21:44:05.121Z,76.83
2018-03-11T21:46:32.785Z,76.83
2018-03-11T21:49:00.452Z,76.79
2018-03-11T21:51:28.065Z,76.76
2018-03-11T21:53:55.771Z,76.76
2018-03-11T21:56:23.396Z,76.80
2018-03-11T21:58:51.100Z,76.81
2018-03-11T22:01:18.757Z,76.82
2018-03-11T22:03:46.424Z,76.90
2018-03-11T22:06:14.052Z,77.07
2018-03-11T22:08:41.748Z,77.13
2018-03-11T22:11:09.380Z,77.00
2018-03-11T22:13:36.989Z,77.16
2018-03-11T22:16:04.625Z,77.27
2018-03-11T22:18:32.238Z,77.19
2018-03-11T22:20:59.964Z,77.21
2018-03-11T22:23:27.633Z,77.42
2018-03-11T22:25:55.285Z,77.52
2018-03-11T22:28:22.891Z,77.59
2018-03-11T22:30:50.617Z,77.63
2018-03-11T22:33:18.248Z,77.72
2018-03-11T22:35:45.938Z,77.71
2018-03-11T22:38:13.600Z,77.89
2018-03-11T22:40:41.273Z,77.93
2018-03-11T22:43:08.900Z,77.80
2018-03-11T22:45:36.511Z,77.78
2018-03-11T22:48:04.145Z,78.01
2018-03-11T22:50:31.752Z,78.06
2018-03-11T22:52:59.472Z,78.07
2018-03-11T22:55:27.145Z,78.01
2018-03-11T22:57:54.800Z,77.97
2018-03-11T23:00:22.416Z,78.12
2018-03-11T23:02:50.044Z,78.13
2018-03-11T23:05:17.693Z,78.11
2018-03-11T23:07:45.456Z,78.08
2018-03-11T23:10:13.073Z,78.15
2018-03-11T23:12:40.776Z,78.17
2018-03-11T23:15:08.405Z,78.18
2018-03-11T23:17:36.017Z,78.30
2018-03-11T23:20:03.660Z,78.31
2018-03-11T23:22:31.274Z,78.31
2018-03-11T23:24:58.914Z,78.28
2018-03-11T23:27:26.520Z,78.28
2018-03-11T23:29:54.152Z,78.37
2018-03-11T23:32:21.765Z,78.48
2018-03-11T23:34:49.397Z,78.50
2018-03-11T23:37:17.010Z,78.50
2018-03-11T23:39:44.656Z,78.54
2018-03-11T23:42:12.330Z,78.56
2018-03-11T23:44:39.945Z,78.62
2018-03-11T23:47:07.580Z,78.64
2018-03-11T23:49:35.189Z,78.61
2018-03-11T23:52:02.826Z,78.55
2018-03-11T23:54:30.432Z,78.51
2018-03-11T23:56:58.065Z,78.51
2018-03-11T23:59:25.676Z,78.46
